Iguazu, Argentina
Current Conditions -  °F | °C
As of 9:00 AM on Saturday 25 Oct 2014 (Local Time) from SBFI Reporting Station
Clear Clear  
Wind Chill: 79°   Ceiling: Unl
Heat Index: 81°   Visibility: 6mi
Dew Point: 70°   Wind: 3mph
Humidity: 74%   Direction: 80°E
Pressure: 29.91"   Gusts: NA
Location:  25.58°S, 54.57°W
Report Text: SBFI 251200Z 08003KT CAVOK 26/21 Q1013
Loading
Personal Weather Stations






























Interactive Weather Map
Tropical Storm Tracking
New forecast layout! Learn more

10-Day Weather Forecast

Advertisements
Track Severe Weather on mobile